首页
METAR-TAF:

METAR-TAF

机场 :

奧斯拉瓦河畔納梅什季, 捷克共和国

纬度: 49-09-57N, 经度: 16-07-30E, 海拔: 472米

当前天气观测

该预报发布于1小时和10分钟前的05:00 UTC
风速4节,风向东转东北
温度 5°C
湿度 93%
气压 1017 hPa
能见度10公里或以上
1500米以下无云,无积雨云

METAR: LKNA 170500Z 07004KT CAVOK 05/04 Q1017 NOSIG RMK BLU BLU

时间: 08:10 (06:10 UTC)

预报

该预报发布于1小时和10分钟前的05:00 UTC
预报有效从17日的 06点(UTC)到 18日的 06点(UTC)
风速2节,风向多变
能见度10公里或以上
1500米以下无云,无积雨云
成为
从 17日的 06点(UTC)到 17日的 08点(UTC)
风速6节,风向东转东南
成为
从 17日的 18点(UTC)到 17日的 20点(UTC)
能見度: 6000
成为
从 17日的 22点(UTC)到 18日的 00点(UTC)
能見度: 3000
多云层高于1000英尺
轻雾
几率 40%
从 18日的 02点(UTC)到 18日的 06点(UTC)
能見度: 0400
层高于200英尺

TAF: LKNA 170500Z 1706/1806 VRB02KT CAVOK BECMG 1706/1708 12006KT BECMG 1718/1720 6000 NSC BECMG 1722/1800 3000 BR BKN010 PROB40 1802/1806 0400 FG VV002

超过4000个机场的气象观测和天气预报(METAR&TAF报告)。

可查询的气象台以黄色和红色小点在地图上表示。

将鼠标移到小点上方,可查看气象台名称。

然后点击查看天气观测和预报。

如需切换地图:点击带黑十字的绿色按钮放大地图;点击带横线的绿色按钮缩小地图;或者点击绿色箭头查看邻近地区的地图。


METAR-TAF: